Time;durP1;ratioP1;P1;durP2;ratioP2;P2;SDS_P1;SDS_P2;PMS_P1;PMS_P2;Temp;Humidity;BMP_temperature;BMP_pressure;BME280_temperature;BME280_humidity;BME280_pressure;Samples;Min_cycle;Max_cycle;Signal;HPM_P1;HPM_P2
2023/04/22 00:00:34;;;;;;;18.67;15.45;;;;;;;;;;4991705;28;20231;-63
2023/04/22 00:03:04;;;;;;;13.85;11.75;;;;;;;;;;4996289;28;20289;-65
2023/04/22 00:05:32;;;;;;;12.98;10.75;;;;;;;;;;4993343;28;20261;-65
2023/04/22 00:08:00;;;;;;;10.65;9.55;;;;;;;;;;5001158;28;20624;-64
2023/04/22 00:10:29;;;;;;;10.27;9.23;;;;;;;;;;5001573;28;20259;-63
2023/04/22 00:12:57;;;;;;;21.52;11.95;;;;;;;;;;4997436;28;20267;-61
2023/04/22 00:15:25;;;;;;;20.80;13.40;;;;;;;;;;4998312;28;20285;-62
2023/04/22 00:17:54;;;;;;;27.35;18.08;;;;;;;;;;4997123;28;20282;-62
2023/04/22 00:20:24;;;;;;;32.08;16.83;;;;;;;;;;4997081;28;20303;-63
2023/04/22 00:22:52;;;;;;;12.98;11.35;;;;;;;;;;4996705;28;20670;-62
2023/04/22 00:25:20;;;;;;;18.17;11.13;;;;;;;;;;4997946;28;20281;-63
2023/04/22 00:27:49;;;;;;;16.05;11.32;;;;;;;;;;4997765;28;20213;-62
2023/04/22 00:30:17;;;;;;;15.43;11.20;;;;;;;;;;4996777;28;20289;-61
2023/04/22 00:32:45;;;;;;;13.95;11.35;;;;;;;;;;4997049;28;20273;-61
2023/04/22 00:35:13;;;;;;;17.58;12.45;;;;;;;;;;4997503;28;20272;-62
2023/04/22 00:37:43;;;;;;;26.42;14.95;;;;;;;;;;4998030;28;20289;-63
2023/04/22 00:40:12;;;;;;;45.30;25.05;;;;;;;;;;4997762;28;20305;-61
2023/04/22 00:42:40;;;;;;;33.67;20.35;;;;;;;;;;4997506;28;20283;-62
2023/04/22 00:45:11;;;;;;;23.80;16.42;;;;;;;;;;4996316;28;20194;-61
2023/04/22 00:47:39;;;;;;;32.90;20.83;;;;;;;;;;4986093;28;20281;-61
2023/04/22 00:50:08;;;;;;;43.80;26.13;;;;;;;;;;4997578;28;20293;-62
2023/04/22 00:52:36;;;;;;;32.22;22.13;;;;;;;;;;4996899;28;20277;-63
2023/04/22 00:55:06;;;;;;;30.13;19.15;;;;;;;;;;4997282;28;20630;-62
2023/04/22 00:57:35;;;;;;;21.40;14.73;;;;;;;;;;4996339;28;20273;-62
2023/04/22 01:00:04;;;;;;;27.73;14.50;;;;;;;;;;4996700;28;20313;-61
2023/04/22 01:02:33;;;;;;;21.02;11.73;;;;;;;;;;4996156;28;20293;-63
2023/04/22 01:05:02;;;;;;;14.77;11.00;;;;;;;;;;4978458;28;20260;-62
2023/04/22 01:07:30;;;;;;;12.70;10.95;;;;;;;;;;4977821;28;20326;-61
2023/04/22 01:10:00;;;;;;;9.65;8.75;;;;;;;;;;4977223;28;20290;-63
2023/04/22 01:12:29;;;;;;;10.30;9.30;;;;;;;;;;4977301;28;20286;-61
2023/04/22 01:14:58;;;;;;;9.80;8.80;;;;;;;;;;4977254;28;20742;-62
2023/04/22 01:17:26;;;;;;;9.88;8.90;;;;;;;;;;4977419;28;20208;-62
2023/04/22 01:19:55;;;;;;;8.77;7.90;;;;;;;;;;4976820;28;20302;-62
2023/04/22 01:22:24;;;;;;;8.90;8.20;;;;;;;;;;4977059;28;20305;-60
2023/04/22 01:24:55;;;;;;;16.17;8.52;;;;;;;;;;4975379;28;20207;-61
2023/04/22 01:27:23;;;;;;;9.75;8.82;;;;;;;;;;4976219;28;20206;-62
2023/04/22 01:29:52;;;;;;;8.07;7.30;;;;;;;;;;4975398;28;20267;-62
2023/04/22 01:32:20;;;;;;;9.70;8.50;;;;;;;;;;4976648;28;20199;-61
2023/04/22 01:34:48;;;;;;;10.35;9.20;;;;;;;;;;4976649;28;20290;-62
2023/04/22 01:37:18;;;;;;;8.25;7.60;;;;;;;;;;4992293;28;20215;-60
2023/04/22 01:39:47;;;;;;;9.82;8.82;;;;;;;;;;4995931;28;20198;-60
2023/04/22 01:42:17;;;;;;;13.13;8.80;;;;;;;;;;4997194;28;20618;-61
2023/04/22 01:44:46;;;;;;;8.90;8.02;;;;;;;;;;5014976;28;20197;-62
2023/04/22 01:47:14;;;;;;;10.93;9.82;;;;;;;;;;5000274;28;20631;-61
2023/04/22 01:49:42;;;;;;;11.23;8.85;;;;;;;;;;5014731;28;20214;-63
2023/04/22 01:52:11;;;;;;;12.48;9.73;;;;;;;;;;4999533;28;20733;-61
2023/04/22 01:54:39;;;;;;;11.15;9.43;;;;;;;;;;4999424;28;20282;-60
2023/04/22 01:57:10;;;;;;;9.60;8.73;;;;;;;;;;4998915;28;20202;-63
2023/04/22 01:59:39;;;;;;;10.27;9.30;;;;;;;;;;4986212;28;20313;-60
2023/04/22 02:02:08;;;;;;;10.68;9.57;;;;;;;;;;4997304;28;20226;-62
2023/04/22 02:04:36;;;;;;;11.13;9.98;;;;;;;;;;4998281;28;20278;-60
2023/04/22 02:07:04;;;;;;;14.45;10.05;;;;;;;;;;4997025;28;20210;-62
2023/04/22 02:09:36;;;;;;;12.43;11.05;;;;;;;;;;4999791;28;20255;-60
2023/04/22 02:12:04;;;;;;;13.63;11.43;;;;;;;;;;4998655;28;20623;-62
2023/04/22 02:14:33;;;;;;;11.63;10.43;;;;;;;;;;4998132;28;20258;-61
2023/04/22 02:17:05;;;;;;;11.75;10.55;;;;;;;;;;4998613;28;20786;-62
2023/04/22 02:19:34;;;;;;;12.98;10.05;;;;;;;;;;4999767;28;20289;-61
2023/04/22 02:22:03;;;;;;;11.07;9.27;;;;;;;;;;4997680;28;20464;-62
2023/04/22 02:24:31;;;;;;;11.02;9.07;;;;;;;;;;4999123;28;20281;-62
2023/04/22 02:27:00;;;;;;;10.35;9.30;;;;;;;;;;4997575;28;20286;-62
2023/04/22 02:29:30;;;;;;;9.48;8.68;;;;;;;;;;4997797;28;20294;-63
2023/04/22 02:31:59;;;;;;;9.88;8.13;;;;;;;;;;4997547;28;20202;-61
2023/04/22 02:34:29;;;;;;;9.70;8.75;;;;;;;;;;4998652;28;20627;-60
2023/04/22 02:36:57;;;;;;;10.07;8.00;;;;;;;;;;4998902;28;20281;-60
2023/04/22 02:39:26;;;;;;;9.43;8.57;;;;;;;;;;4998706;28;20333;-62
2023/04/22 02:41:54;;;;;;;9.77;8.75;;;;;;;;;;4996791;28;20215;-60
2023/04/22 02:44:23;;;;;;;9.40;8.50;;;;;;;;;;4998690;28;20271;-60
2023/04/22 02:46:51;;;;;;;13.38;8.95;;;;;;;;;;4998591;28;20278;-60
2023/04/22 02:49:19;;;;;;;9.77;8.95;;;;;;;;;;4996852;28;20262;-62
2023/04/22 02:51:49;;;;;;;9.80;8.52;;;;;;;;;;4999036;28;20250;-60
2023/04/22 02:54:17;;;;;;;10.00;9.10;;;;;;;;;;4997010;28;20206;-62
2023/04/22 02:56:46;;;;;;;9.23;8.30;;;;;;;;;;4997141;28;20324;-63
2023/04/22 02:59:14;;;;;;;10.15;8.43;;;;;;;;;;4998021;28;20341;-62
2023/04/22 03:01:43;;;;;;;8.25;7.55;;;;;;;;;;4996261;28;20228;-63
2023/04/22 03:04:20;;;;;;;7.95;7.15;;;;;;;;;;4976192;28;20294;-64
2023/04/22 03:06:50;;;;;;;8.88;8.07;;;;;;;;;;4988421;28;20281;-62
2023/04/22 03:09:19;;;;;;;8.95;8.05;;;;;;;;;;4997740;28;20285;-63
2023/04/22 03:11:47;;;;;;;8.82;7.70;;;;;;;;;;4999327;28;20278;-61
2023/04/22 03:14:15;;;;;;;8.95;7.15;;;;;;;;;;4992748;28;20255;-61
2023/04/22 03:16:43;;;;;;;8.40;7.70;;;;;;;;;;4994237;28;20270;-61
2023/04/22 03:19:12;;;;;;;8.30;7.57;;;;;;;;;;4979159;28;20285;-61
2023/04/22 03:21:40;;;;;;;8.68;7.97;;;;;;;;;;4979500;28;20279;-61
2023/04/22 03:24:10;;;;;;;13.43;8.30;;;;;;;;;;4993334;28;20286;-61
2023/04/22 03:26:38;;;;;;;8.10;7.35;;;;;;;;;;5000666;28;20250;-62
2023/04/22 03:29:07;;;;;;;13.75;8.27;;;;;;;;;;4996444;28;20244;-62
2023/04/22 03:31:36;;;;;;;9.07;7.43;;;;;;;;;;4998997;28;20289;-61
2023/04/22 03:34:05;;;;;;;7.80;6.93;;;;;;;;;;5013098;28;20224;-62
2023/04/22 03:36:34;;;;;;;7.88;7.18;;;;;;;;;;4981991;28;20262;-61
2023/04/22 03:39:03;;;;;;;8.55;7.68;;;;;;;;;;4997332;28;20630;-61
2023/04/22 03:41:36;;;;;;;8.05;7.25;;;;;;;;;;4997017;28;20218;-60
2023/04/22 03:44:05;;;;;;;7.97;7.15;;;;;;;;;;4998204;28;20254;-62
2023/04/22 03:46:35;;;;;;;8.20;7.40;;;;;;;;;;5014146;28;20286;-62
2023/04/22 03:49:17;;;;;;;9.40;8.32;;;;;;;;;;4998256;28;20266;-62
2023/04/22 03:51:46;;;;;;;8.55;7.75;;;;;;;;;;5014263;28;20279;-62
2023/04/22 03:54:18;;;;;;;9.25;8.25;;;;;;;;;;5014655;28;20274;-62
2023/04/22 03:56:54;;;;;;;10.98;9.82;;;;;;;;;;5013756;28;20246;-62
2023/04/22 03:59:24;;;;;;;13.48;12.07;;;;;;;;;;5014292;28;20337;-62
2023/04/22 04:01:53;;;;;;;10.98;9.88;;;;;;;;;;4996568;28;20214;-62
2023/04/22 04:04:24;;;;;;;12.18;10.15;;;;;;;;;;4982171;28;20246;-63
2023/04/22 04:06:57;;;;;;;12.80;11.40;;;;;;;;;;4987528;28;20289;-62
2023/04/22 04:09:25;;;;;;;13.05;11.75;;;;;;;;;;4999404;28;20286;-61
2023/04/22 04:11:56;;;;;;;15.00;12.40;;;;;;;;;;4996673;28;20247;-61
2023/04/22 04:14:27;;;;;;;12.70;9.65;;;;;;;;;;4991667;28;20217;-63
2023/04/22 04:16:55;;;;;;;12.15;8.93;;;;;;;;;;4991208;28;20203;-63
2023/04/22 04:19:30;;;;;;;12.30;10.68;;;;;;;;;;4991728;28;20201;-62
2023/04/22 04:21:58;;;;;;;10.80;8.73;;;;;;;;;;4990674;28;20771;-62
2023/04/22 04:24:28;;;;;;;14.18;8.60;;;;;;;;;;4990938;28;20197;-63
2023/04/22 04:27:05;;;;;;;12.75;7.90;;;;;;;;;;4991566;28;20201;-62
2023/04/22 04:29:41;;;;;;;10.20;9.30;;;;;;;;;;5001852;28;20187;-62
2023/04/22 04:32:21;;;;;;;11.50;10.32;;;;;;;;;;4987923;28;20191;-62
2023/04/22 04:34:51;;;;;;;11.38;8.88;;;;;;;;;;4972422;28;20564;-63
2023/04/22 04:37:21;;;;;;;9.32;8.02;;;;;;;;;;4971878;28;20692;-62
2023/04/22 04:39:59;;;;;;;11.18;9.88;;;;;;;;;;4988199;28;20191;-62
2023/04/22 04:42:34;;;;;;;11.60;9.30;;;;;;;;;;4998976;28;20214;-62
2023/04/22 04:45:07;;;;;;;9.82;8.93;;;;;;;;;;5007504;28;20197;-62
2023/04/22 04:47:35;;;;;;;8.52;7.72;;;;;;;;;;4992427;28;20669;-62
2023/04/22 04:50:14;;;;;;;8.10;7.35;;;;;;;;;;5007904;28;20194;-62
2023/04/22 04:52:42;;;;;;;7.53;6.93;;;;;;;;;;5007427;28;20207;-62
2023/04/22 04:55:11;;;;;;;8.70;6.97;;;;;;;;;;4992752;28;20203;-62
2023/04/22 04:57:41;;;;;;;7.28;6.63;;;;;;;;;;4991203;28;20214;-63
2023/04/22 05:00:10;;;;;;;9.15;8.35;;;;;;;;;;5007504;28;20241;-62
2023/04/22 05:02:38;;;;;;;7.78;7.10;;;;;;;;;;4990965;28;20222;-62
2023/04/22 05:05:07;;;;;;;8.60;7.15;;;;;;;;;;4991540;28;20245;-63
2023/04/22 05:07:36;;;;;;;9.50;8.50;;;;;;;;;;4974568;28;20203;-63
2023/04/22 05:10:06;;;;;;;10.90;7.65;;;;;;;;;;5007477;28;20207;-63
2023/04/22 05:12:34;;;;;;;8.02;7.32;;;;;;;;;;4992852;28;20214;-62
2023/04/22 05:15:04;;;;;;;7.70;6.90;;;;;;;;;;4987959;28;20207;-63
2023/04/22 05:17:33;;;;;;;7.07;6.50;;;;;;;;;;4990833;28;20214;-62
2023/04/22 05:20:01;;;;;;;7.15;6.55;;;;;;;;;;5002140;28;20237;-63
2023/04/22 05:22:30;;;;;;;8.25;7.55;;;;;;;;;;4993808;28;20225;-64
2023/04/22 05:24:58;;;;;;;7.07;6.47;;;;;;;;;;4993507;28;20207;-64
2023/04/22 05:27:26;;;;;;;11.10;10.02;;;;;;;;;;4993559;28;20656;-63
2023/04/22 05:29:55;;;;;;;10.43;9.55;;;;;;;;;;4993023;28;20294;-63
2023/04/22 05:32:29;;;;;;;7.45;6.75;;;;;;;;;;5007935;28;20601;-63
2023/04/22 05:34:57;;;;;;;7.13;6.53;;;;;;;;;;4993519;28;20205;-62
2023/04/22 05:37:26;;;;;;;7.40;6.70;;;;;;;;;;4994078;28;20700;-62
2023/04/22 05:39:54;;;;;;;10.40;7.28;;;;;;;;;;4993925;28;20203;-62
2023/04/22 05:42:23;;;;;;;15.88;14.32;;;;;;;;;;5005498;28;20554;-62
2023/04/22 05:44:51;;;;;;;15.43;14.07;;;;;;;;;;4994389;28;20207;-63
2023/04/22 05:47:19;;;;;;;9.82;9.00;;;;;;;;;;4992556;28;20578;-63
2023/04/22 05:49:49;;;;;;;16.45;14.98;;;;;;;;;;4991898;28;20203;-62
2023/04/22 05:52:21;;;;;;;16.27;14.90;;;;;;;;;;4993168;28;20210;-62
2023/04/22 05:55:15;;;;;;;9.55;8.52;;;;;;;;;;4990244;28;20616;-62
2023/04/22 05:57:45;;;;;;;10.90;9.80;;;;;;;;;;4995662;28;20205;-62
2023/04/22 06:00:39;;;;;;;8.30;7.60;;;;;;;;;;4991111;28;20301;-62
2023/04/22 06:03:28;;;;;;;10.30;7.95;;;;;;;;;;4981876;28;20693;-63
2023/04/22 06:05:59;;;;;;;11.90;7.38;;;;;;;;;;4990920;28;20206;-63
2023/04/22 06:08:27;;;;;;;7.75;7.05;;;;;;;;;;4992511;28;20213;-62
2023/04/22 06:10:56;;;;;;;7.32;5.60;;;;;;;;;;4994754;28;20241;-62
2023/04/22 06:13:26;;;;;;;6.28;5.78;;;;;;;;;;4994425;28;20561;-62
2023/04/22 06:15:55;;;;;;;9.52;6.28;;;;;;;;;;4993918;28;20274;-62
2023/04/22 06:18:23;;;;;;;5.95;5.45;;;;;;;;;;4995923;28;20229;-62
2023/04/22 06:20:52;;;;;;;6.90;6.30;;;;;;;;;;4977894;28;20700;-65
2023/04/22 06:23:21;;;;;;;6.18;5.55;;;;;;;;;;4995639;28;20229;-64
2023/04/22 06:25:50;;;;;;;5.30;4.90;;;;;;;;;;4994279;28;20615;-63
2023/04/22 06:28:18;;;;;;;5.72;5.30;;;;;;;;;;4993834;28;20215;-63
2023/04/22 06:30:49;;;;;;;5.22;4.85;;;;;;;;;;4977318;28;20195;-63
2023/04/22 06:33:18;;;;;;;5.72;5.22;;;;;;;;;;4993447;28;20206;-63
2023/04/22 06:35:46;;;;;;;5.60;5.20;;;;;;;;;;4991403;28;20249;-64
2023/04/22 06:38:14;;;;;;;5.90;5.10;;;;;;;;;;4994040;28;20206;-63
2023/04/22 06:41:06;;;;;;;6.22;5.68;;;;;;;;;;4991918;28;20579;-63
2023/04/22 06:43:39;;;;;;;5.32;4.85;;;;;;;;;;5000497;28;20209;-63
2023/04/22 06:46:10;;;;;;;7.90;5.50;;;;;;;;;;4993170;28;20209;-63
2023/04/22 06:48:53;;;;;;;9.27;6.23;;;;;;;;;;4992515;28;20191;-65
2023/04/22 06:51:44;;;;;;;7.63;6.37;;;;;;;;;;4993619;28;20596;-62
2023/04/22 06:54:13;;;;;;;7.57;6.00;;;;;;;;;;4992829;28;20597;-61
2023/04/22 06:56:43;;;;;;;6.60;6.00;;;;;;;;;;4993619;28;20634;-64
2023/04/22 06:59:11;;;;;;;11.40;6.80;;;;;;;;;;4993307;28;20628;-61
2023/04/22 07:01:40;;;;;;;7.17;6.60;;;;;;;;;;4991592;28;20613;-62
2023/04/22 07:04:08;;;;;;;8.70;6.87;;;;;;;;;;4990077;28;20628;-61
2023/04/22 07:06:37;;;;;;;8.03;7.23;;;;;;;;;;4991145;28;20618;-61
2023/04/22 07:09:05;;;;;;;7.93;7.23;;;;;;;;;;4991614;28;21015;-62
2023/04/22 07:11:33;;;;;;;8.32;7.53;;;;;;;;;;4991055;28;20632;-62
2023/04/22 07:14:06;;;;;;;8.07;7.30;;;;;;;;;;4991507;28;20183;-62
2023/04/22 07:16:34;;;;;;;8.45;7.65;;;;;;;;;;4991586;28;20608;-62
2023/04/22 07:19:04;;;;;;;8.20;7.50;;;;;;;;;;4992719;28;20203;-61
2023/04/22 07:21:33;;;;;;;8.70;7.90;;;;;;;;;;4992972;28;20654;-62
2023/04/22 07:24:01;;;;;;;8.53;7.43;;;;;;;;;;4992372;28;20636;-62
2023/04/22 07:26:30;;;;;;;8.00;7.20;;;;;;;;;;4988088;28;20633;-62
2023/04/22 07:28:58;;;;;;;8.03;7.30;;;;;;;;;;4992446;28;20626;-62
2023/04/22 07:31:28;;;;;;;7.03;6.43;;;;;;;;;;4991588;28;20990;-61
2023/04/22 07:33:56;;;;;;;5.90;5.40;;;;;;;;;;4992350;28;20609;-61
2023/04/22 07:36:25;;;;;;;7.07;6.47;;;;;;;;;;4992210;28;20610;-62
2023/04/22 07:38:53;;;;;;;7.97;6.77;;;;;;;;;;4990864;28;20987;-62
2023/04/22 07:41:21;;;;;;;7.30;6.60;;;;;;;;;;4991150;28;20972;-64
2023/04/22 07:43:50;;;;;;;8.93;8.13;;;;;;;;;;4992559;28;20654;-61
2023/04/22 07:46:18;;;;;;;7.37;6.77;;;;;;;;;;4992558;28;20592;-62
2023/04/22 07:48:47;;;;;;;7.57;6.97;;;;;;;;;;4992723;28;20629;-62
2023/04/22 07:51:16;;;;;;;7.93;7.10;;;;;;;;;;4992873;28;20618;-62
2023/04/22 07:53:44;;;;;;;7.40;6.70;;;;;;;;;;4992838;28;20687;-63
2023/04/22 07:56:12;;;;;;;7.80;7.20;;;;;;;;;;4992742;28;20620;-64
2023/04/22 07:58:40;;;;;;;6.87;6.27;;;;;;;;;;4992050;28;20592;-63
2023/04/22 08:01:09;;;;;;;7.03;6.33;;;;;;;;;;4992007;28;20677;-62
2023/04/22 08:03:37;;;;;;;8.63;6.27;;;;;;;;;;4991335;28;20672;-62
2023/04/22 08:06:07;;;;;;;6.70;6.10;;;;;;;;;;4992773;28;20632;-62
2023/04/22 08:08:35;;;;;;;6.73;6.13;;;;;;;;;;4987051;28;20630;-62
2023/04/22 08:11:03;;;;;;;6.37;5.77;;;;;;;;;;4993966;28;21206;-63
2023/04/22 08:13:32;;;;;;;8.30;5.47;;;;;;;;;;4992393;28;20624;-62
2023/04/22 08:16:01;;;;;;;5.37;4.93;;;;;;;;;;4991575;28;20675;-61
2023/04/22 08:18:30;;;;;;;5.50;5.10;;;;;;;;;;4991673;28;20588;-63
2023/04/22 08:20:58;;;;;;;5.47;5.07;;;;;;;;;;4992137;28;20634;-63
2023/04/22 08:23:27;;;;;;;6.10;5.60;;;;;;;;;;4991550;28;21037;-63
2023/04/22 08:25:56;;;;;;;5.47;4.83;;;;;;;;;;4992548;28;20971;-62
2023/04/22 08:28:24;;;;;;;5.60;5.17;;;;;;;;;;4991824;28;20602;-63
2023/04/22 08:30:52;;;;;;;5.10;4.80;;;;;;;;;;4992661;28;20602;-63
2023/04/22 08:33:21;;;;;;;6.00;5.30;;;;;;;;;;4991628;28;20618;-62
2023/04/22 08:35:49;;;;;;;6.87;5.93;;;;;;;;;;4992916;28;20608;-62
2023/04/22 08:38:17;;;;;;;4.53;4.33;;;;;;;;;;4992601;28;20600;-62
2023/04/22 08:40:47;;;;;;;5.43;5.13;;;;;;;;;;4992589;28;20994;-62
2023/04/22 08:43:15;;;;;;;5.90;5.50;;;;;;;;;;4992092;28;20614;-63
2023/04/22 08:45:43;;;;;;;5.90;5.40;;;;;;;;;;4992012;28;20635;-62
2023/04/22 08:48:13;;;;;;;5.50;5.10;;;;;;;;;;4990442;28;20618;-61
2023/04/22 08:50:42;;;;;;;6.90;6.40;;;;;;;;;;4991810;28;20626;-60
2023/04/22 08:53:10;;;;;;;8.40;4.90;;;;;;;;;;4994930;28;21040;-62
2023/04/22 08:55:39;;;;;;;6.77;6.17;;;;;;;;;;4994815;28;20595;-62
2023/04/22 08:58:09;;;;;;;5.93;5.50;;;;;;;;;;4995756;28;20643;-61
2023/04/22 09:00:37;;;;;;;6.43;5.83;;;;;;;;;;4995372;28;20649;-62
2023/04/22 09:03:06;;;;;;;5.70;5.20;;;;;;;;;;4994860;28;20648;-62
2023/04/22 09:05:37;;;;;;;6.60;6.00;;;;;;;;;;4995331;28;20657;-62
2023/04/22 09:08:06;;;;;;;7.00;6.43;;;;;;;;;;4995644;28;20577;-63
2023/04/22 09:10:37;;;;;;;7.30;6.37;;;;;;;;;;4995576;28;21181;-62
2023/04/22 09:13:05;;;;;;;7.40;6.57;;;;;;;;;;4995812;28;20648;-63
2023/04/22 09:15:35;;;;;;;7.40;6.60;;;;;;;;;;4995519;28;20610;-62
2023/04/22 09:18:04;;;;;;;6.60;6.20;;;;;;;;;;4995945;28;20614;-63
2023/04/22 09:20:32;;;;;;;6.63;5.90;;;;;;;;;;4995433;28;20650;-61
2023/04/22 09:23:03;;;;;;;6.77;6.27;;;;;;;;;;4995426;28;20618;-62
2023/04/22 09:25:33;;;;;;;8.50;7.77;;;;;;;;;;4995347;28;20625;-62
2023/04/22 09:28:02;;;;;;;7.47;6.97;;;;;;;;;;4994253;28;20620;-63
2023/04/22 09:30:31;;;;;;;7.93;7.17;;;;;;;;;;4994871;28;20608;-62
2023/04/22 09:33:02;;;;;;;7.67;7.17;;;;;;;;;;4995112;28;20621;-62
2023/04/22 09:35:31;;;;;;;7.20;6.50;;;;;;;;;;4995437;28;21108;-63
2023/04/22 09:38:00;;;;;;;7.70;6.57;;;;;;;;;;4994810;28;20584;-64
2023/04/22 09:40:28;;;;;;;8.53;6.47;;;;;;;;;;5001481;28;20628;-62
2023/04/22 09:42:58;;;;;;;7.60;6.97;;;;;;;;;;5014422;28;21200;-63
2023/04/22 09:45:27;;;;;;;7.17;6.67;;;;;;;;;;5014616;28;20630;-63
2023/04/22 09:47:56;;;;;;;7.10;6.67;;;;;;;;;;5013307;28;20666;-63
2023/04/22 09:50:27;;;;;;;6.70;6.13;;;;;;;;;;5014624;28;20608;-63
2023/04/22 09:52:55;;;;;;;6.67;6.00;;;;;;;;;;5014060;28;20580;-63
2023/04/22 09:55:24;;;;;;;7.00;6.60;;;;;;;;;;5014371;28;20616;-63
2023/04/22 09:57:53;;;;;;;7.40;6.90;;;;;;;;;;5013718;28;20609;-63
2023/04/22 10:00:23;;;;;;;6.90;6.50;;;;;;;;;;5013870;28;20652;-64
2023/04/22 10:02:51;;;;;;;7.10;6.60;;;;;;;;;;5011610;28;20605;-63
2023/04/22 10:05:19;;;;;;;6.63;6.33;;;;;;;;;;5013979;28;20656;-62
2023/04/22 10:07:49;;;;;;;7.17;6.53;;;;;;;;;;5013797;28;20635;-63
2023/04/22 10:10:17;;;;;;;7.40;6.80;;;;;;;;;;5014690;28;20632;-63
2023/04/22 10:12:48;;;;;;;7.40;6.53;;;;;;;;;;5013849;28;20621;-64
2023/04/22 10:15:16;;;;;;;6.67;6.37;;;;;;;;;;5013896;28;20958;-64
2023/04/22 10:17:45;;;;;;;6.90;6.60;;;;;;;;;;5013623;28;20621;-63
2023/04/22 10:20:16;;;;;;;7.97;7.33;;;;;;;;;;5014333;28;20641;-63
2023/04/22 10:22:46;;;;;;;7.50;7.03;;;;;;;;;;5013329;28;20991;-63
2023/04/22 10:25:22;;;;;;;8.47;7.70;;;;;;;;;;5013512;28;21028;-63
2023/04/22 10:27:54;;;;;;;7.60;6.70;;;;;;;;;;5014101;28;20589;-63
2023/04/22 10:30:28;;;;;;;7.83;7.33;;;;;;;;;;5023902;28;20690;-68
2023/04/22 10:32:56;;;;;;;7.50;7.03;;;;;;;;;;5029451;28;20612;-68
2023/04/22 10:35:27;;;;;;;7.30;6.90;;;;;;;;;;5027079;28;20664;-66
2023/04/22 10:37:56;;;;;;;8.30;7.50;;;;;;;;;;5027247;28;20613;-67
2023/04/22 10:40:25;;;;;;;8.00;7.60;;;;;;;;;;5029000;28;20653;-66
2023/04/22 10:42:54;;;;;;;7.90;7.40;;;;;;;;;;5027284;28;21080;-67
2023/04/22 10:45:25;;;;;;;7.20;6.80;;;;;;;;;;5029163;28;21110;-64
2023/04/22 10:47:53;;;;;;;7.67;7.30;;;;;;;;;;5029569;28;20608;-66
2023/04/22 10:50:24;;;;;;;8.40;8.00;;;;;;;;;;5028694;28;21058;-62
2023/04/22 10:52:53;;;;;;;8.13;7.67;;;;;;;;;;5028111;28;20612;-65
2023/04/22 10:55:21;;;;;;;9.50;8.80;;;;;;;;;;5029265;28;20656;-63
2023/04/22 10:57:52;;;;;;;8.63;8.03;;;;;;;;;;5028056;28;21178;-67
2023/04/22 11:00:31;;;;;;;8.87;8.37;;;;;;;;;;5031404;28;20703;-67
2023/04/22 11:03:10;;;;;;;8.63;8.07;;;;;;;;;;5026757;28;21176;-66
2023/04/22 11:05:39;;;;;;;7.80;7.40;;;;;;;;;;5029476;28;20722;-67
2023/04/22 11:08:08;;;;;;;8.40;8.00;;;;;;;;;;5030358;28;20989;-68
2023/04/22 11:10:40;;;;;;;8.43;8.03;;;;;;;;;;5029392;28;20636;-68
2023/04/22 11:13:11;;;;;;;8.30;7.83;;;;;;;;;;5020100;28;20602;-67
2023/04/22 11:15:40;;;;;;;8.63;8.23;;;;;;;;;;5010812;28;20598;-66
2023/04/22 11:18:10;;;;;;;9.10;8.60;;;;;;;;;;5008879;28;20642;-67
2023/04/22 11:20:39;;;;;;;9.17;8.77;;;;;;;;;;5010001;28;20758;-67
2023/04/22 11:23:09;;;;;;;9.33;8.93;;;;;;;;;;5007529;28;20676;-66
2023/04/22 11:25:37;;;;;;;10.07;9.63;;;;;;;;;;4989412;28;20710;-67
2023/04/22 11:28:05;;;;;;;9.27;8.87;;;;;;;;;;5005917;28;20682;-67
2023/04/22 11:30:35;;;;;;;9.27;8.50;;;;;;;;;;5023850;28;20720;-67
2023/04/22 11:33:03;;;;;;;9.57;8.90;;;;;;;;;;5021948;28;20688;-67
2023/04/22 11:35:32;;;;;;;9.33;8.80;;;;;;;;;;5023438;28;20689;-68
2023/04/22 11:38:01;;;;;;;9.90;9.30;;;;;;;;;;5021329;28;20672;-67
2023/04/22 11:40:31;;;;;;;9.20;8.70;;;;;;;;;;5005361;28;20680;-67
2023/04/22 11:43:00;;;;;;;9.17;8.67;;;;;;;;;;5022918;28;20691;-66
2023/04/22 11:45:29;;;;;;;9.97;9.37;;;;;;;;;;5017861;28;20724;-66
2023/04/22 11:47:59;;;;;;;9.30;8.80;;;;;;;;;;5007530;28;20645;-68
2023/04/22 11:50:29;;;;;;;9.00;8.50;;;;;;;;;;5007189;28;20686;-67
2023/04/22 11:52:57;;;;;;;8.97;8.37;;;;;;;;;;5007745;28;20645;-67
2023/04/22 11:55:29;;;;;;;9.73;9.33;;;;;;;;;;5007262;28;20644;-68
2023/04/22 11:57:58;;;;;;;9.30;8.90;;;;;;;;;;5005550;28;20682;-68
2023/04/22 12:00:30;;;;;;;9.20;8.80;;;;;;;;;;5003861;28;21339;-68
2023/04/22 12:03:01;;;;;;;9.67;9.27;;;;;;;;;;5005796;28;21141;-67
2023/04/22 12:05:33;;;;;;;9.63;9.13;;;;;;;;;;5008186;28;20721;-68
2023/04/22 12:08:02;;;;;;;8.60;8.20;;;;;;;;;;5008657;28;20628;-65
2023/04/22 12:10:30;;;;;;;8.80;8.37;;;;;;;;;;5009814;28;20654;-67
2023/04/22 12:13:00;;;;;;;8.70;8.30;;;;;;;;;;5011555;28;20645;-66
2023/04/22 12:15:37;;;;;;;9.77;9.27;;;;;;;;;;5011651;28;20730;-66
2023/04/22 12:18:07;;;;;;;9.00;8.60;;;;;;;;;;5012100;28;20601;-67
2023/04/22 12:20:35;;;;;;;9.90;9.27;;;;;;;;;;5012317;28;20657;-67
2023/04/22 12:23:04;;;;;;;8.20;7.83;;;;;;;;;;5027865;28;20648;-67
2023/04/22 12:25:33;;;;;;;9.60;9.20;;;;;;;;;;5032251;28;20853;-68
2023/04/22 12:28:04;;;;;;;9.63;9.13;;;;;;;;;;5030657;28;20611;-67
2023/04/22 12:30:33;;;;;;;9.47;8.97;;;;;;;;;;5030923;28;20641;-67
2023/04/22 12:33:01;;;;;;;9.37;8.90;;;;;;;;;;5032551;28;20637;-68
2023/04/22 12:35:30;;;;;;;9.20;8.80;;;;;;;;;;5029529;28;20597;-67
2023/04/22 12:37:59;;;;;;;9.30;8.73;;;;;;;;;;5028862;28;20645;-67
2023/04/22 12:40:27;;;;;;;10.13;9.70;;;;;;;;;;5012916;28;20642;-68
2023/04/22 12:42:55;;;;;;;8.97;8.60;;;;;;;;;;5011371;28;20634;-68
2023/04/22 12:45:24;;;;;;;9.87;9.47;;;;;;;;;;5013167;28;20637;-66
2023/04/22 12:47:54;;;;;;;10.23;9.63;;;;;;;;;;5013121;28;20673;-64
2023/04/22 12:50:22;;;;;;;9.53;9.03;;;;;;;;;;5013094;28;20645;-66
2023/04/22 12:52:52;;;;;;;8.53;8.13;;;;;;;;;;5011615;28;20646;-67
2023/04/22 12:55:20;;;;;;;7.80;7.20;;;;;;;;;;5013743;28;20640;-67
2023/04/22 12:57:49;;;;;;;10.57;7.77;;;;;;;;;;4974574;28;20618;-67
2023/04/22 13:00:17;;;;;;;8.87;8.37;;;;;;;;;;4991268;28;20644;-68
2023/04/22 13:02:46;;;;;;;8.37;7.90;;;;;;;;;;4989518;28;20642;-68
2023/04/22 13:05:15;;;;;;;8.90;8.30;;;;;;;;;;4991959;28;20638;-68
2023/04/22 13:07:43;;;;;;;8.97;8.43;;;;;;;;;;4991555;28;20693;-67
2023/04/22 13:10:13;;;;;;;8.50;7.77;;;;;;;;;;4992808;28;21183;-68
2023/04/22 13:12:42;;;;;;;7.30;7.10;;;;;;;;;;4991012;28;21494;-66
2023/04/22 13:15:10;;;;;;;7.93;7.50;;;;;;;;;;5007339;28;20667;-68
2023/04/22 13:17:39;;;;;;;7.93;7.53;;;;;;;;;;5027381;28;20667;-68
2023/04/22 13:20:11;;;;;;;8.67;8.27;;;;;;;;;;5026642;28;20664;-68
2023/04/22 13:22:39;;;;;;;8.07;7.37;;;;;;;;;;5026895;28;20604;-68
2023/04/22 13:25:08;;;;;;;8.17;7.67;;;;;;;;;;5027466;28;20636;-68
2023/04/22 13:27:37;;;;;;;8.27;7.87;;;;;;;;;;5027104;28;20708;-67
2023/04/22 13:30:07;;;;;;;7.90;7.30;;;;;;;;;;5025777;28;20648;-68
2023/04/22 13:32:35;;;;;;;7.80;7.40;;;;;;;;;;4986393;28;20665;-68
2023/04/22 13:35:04;;;;;;;8.00;7.60;;;;;;;;;;4988006;28;20630;-67
2023/04/22 13:37:32;;;;;;;7.77;7.47;;;;;;;;;;4988593;28;20623;-66
2023/04/22 13:40:00;;;;;;;8.33;7.50;;;;;;;;;;4990643;28;20641;-68
2023/04/22 13:42:29;;;;;;;7.83;7.43;;;;;;;;;;4991795;28;20954;-67
2023/04/22 13:44:58;;;;;;;8.33;7.70;;;;;;;;;;4990194;28;20630;-67
2023/04/22 13:47:26;;;;;;;8.30;7.70;;;;;;;;;;4991220;28;20741;-67
2023/04/22 13:49:55;;;;;;;7.73;7.30;;;;;;;;;;5022949;28;20712;-67
2023/04/22 13:52:23;;;;;;;7.77;7.47;;;;;;;;;;5025006;28;20684;-66
2023/04/22 13:54:52;;;;;;;8.07;7.57;;;;;;;;;;5026315;28;20700;-66
2023/04/22 13:57:21;;;;;;;7.80;7.50;;;;;;;;;;5026593;28;20680;-66
2023/04/22 13:59:50;;;;;;;8.13;7.83;;;;;;;;;;5025435;28;20727;-68
2023/04/22 14:02:19;;;;;;;8.67;8.30;;;;;;;;;;5024757;28;20900;-68
2023/04/22 14:04:48;;;;;;;8.80;8.47;;;;;;;;;;5016708;28;20689;-67
2023/04/22 14:07:16;;;;;;;9.00;8.60;;;;;;;;;;5021126;28;21095;-65
2023/04/22 14:09:44;;;;;;;8.87;8.47;;;;;;;;;;5023549;28;20674;-67
2023/04/22 14:12:12;;;;;;;9.07;8.70;;;;;;;;;;5024840;28;20696;-66
2023/04/22 14:14:41;;;;;;;9.43;8.93;;;;;;;;;;5024161;28;20720;-66
2023/04/22 14:17:09;;;;;;;9.00;8.40;;;;;;;;;;5021913;28;20699;-66
2023/04/22 14:19:39;;;;;;;8.73;8.43;;;;;;;;;;5023511;28;20723;-67
2023/04/22 14:22:08;;;;;;;8.70;8.20;;;;;;;;;;5009022;28;20755;-68
2023/04/22 14:24:36;;;;;;;9.30;8.80;;;;;;;;;;5002962;28;20673;-67
2023/04/22 14:27:04;;;;;;;9.00;8.40;;;;;;;;;;5000688;28;20724;-67
2023/04/22 14:29:33;;;;;;;10.07;9.60;;;;;;;;;;5003774;28;20705;-67
2023/04/22 14:32:01;;;;;;;9.73;9.17;;;;;;;;;;5003864;28;20708;-67
2023/04/22 14:34:29;;;;;;;8.97;8.50;;;;;;;;;;5002678;28;20749;-68
2023/04/22 14:36:59;;;;;;;8.50;8.10;;;;;;;;;;5001524;28;20720;-67
2023/04/22 14:39:27;;;;;;;10.10;9.10;;;;;;;;;;5009296;28;20697;-67
2023/04/22 14:41:56;;;;;;;9.50;8.60;;;;;;;;;;5023841;28;20715;-66
2023/04/22 14:44:25;;;;;;;8.73;8.30;;;;;;;;;;5024243;28;20707;-67
2023/04/22 14:46:53;;;;;;;8.90;8.60;;;;;;;;;;5023132;28;20744;-66
2023/04/22 14:49:21;;;;;;;8.50;8.00;;;;;;;;;;5023208;28;20688;-68
2023/04/22 14:51:50;;;;;;;9.60;8.90;;;;;;;;;;5022087;28;20723;-68